createdAt,value
2019-04-21T00:00:54.292Z,54.30
2019-04-21T00:01:53.890Z,54.88
2019-04-21T00:02:59.622Z,54.78
2019-04-21T00:04:12.353Z,54.21
2019-04-21T00:05:30.692Z,54.68
2019-04-21T00:06:39.809Z,54.78
2019-04-21T00:07:40.404Z,54.75
2019-04-21T00:08:56.597Z,54.66
2019-04-21T00:10:06.278Z,54.75
2019-04-21T00:10:56.708Z,55.13
2019-04-21T00:12:02.036Z,55.32
2019-04-21T00:13:07.041Z,55.32
2019-04-21T00:14:07.737Z,55.32
2019-04-21T00:15:09.786Z,54.85
2019-04-21T00:16:07.488Z,55.13
2019-04-21T00:17:13.149Z,55.23
2019-04-21T00:18:15.587Z,55.04
2019-04-21T00:19:24.674Z,54.85
2019-04-21T00:20:35.244Z,55.13
2019-04-21T00:21:38.479Z,55.13
2019-04-21T00:22:47.954Z,55.52
2019-04-21T00:24:00.402Z,55.61
2019-04-21T00:25:01.107Z,55.71
2019-04-21T00:26:03.959Z,55.77
2019-04-21T00:27:18.521Z,55.96
2019-04-21T00:28:34.663Z,56.25
2019-04-21T00:29:34.227Z,56.16
2019-04-21T00:30:30.372Z,55.77
2019-04-21T00:31:36.674Z,56.16
2019-04-21T00:32:39.511Z,56.06
2019-04-21T00:33:35.629Z,56.25
2019-04-21T00:34:42.744Z,56.73
2019-04-21T00:35:52.036Z,57.11
2019-04-21T00:36:59.616Z,57.02
2019-04-21T00:38:21.389Z,56.73
2019-04-21T00:39:29.006Z,56.82
2019-04-21T00:40:29.770Z,56.92
2019-04-21T00:41:29.523Z,57.21
2019-04-21T00:42:34.225Z,57.21
2019-04-21T00:43:37.257Z,57.11
2019-04-21T00:44:36.686Z,57.68
2019-04-21T00:45:44.646Z,57.87
2019-04-21T00:46:52.217Z,57.78
2019-04-21T00:48:03.889Z,57.68
2019-04-21T00:49:06.115Z,57.68
2019-04-21T00:50:11.282Z,57.78
2019-04-21T00:52:39.907Z,58.70
2019-04-21T00:54:45.662Z,58.70
2019-04-21T00:55:44.574Z,58.51
2019-04-21T00:56:50.050Z,57.94
2019-04-21T00:57:58.644Z,58.33
2019-04-21T00:58:59.318Z,58.14
2019-04-21T01:00:07.696Z,58.51
2019-04-21T01:01:12.642Z,58.61
2019-04-21T01:02:12.429Z,58.33
2019-04-21T01:03:26.740Z,58.51
2019-04-21T01:04:33.568Z,58.51
2019-04-21T01:05:36.597Z,58.14
2019-04-21T01:06:43.494Z,58.33
2019-04-21T01:07:42.431Z,58.42
2019-04-21T01:08:46.791Z,58.51
2019-04-21T01:09:48.876Z,58.14
2019-04-21T01:10:52.979Z,58.61
2019-04-21T01:12:03.765Z,58.42
2019-04-21T01:13:18.888Z,58.61
2019-04-21T01:14:20.059Z,58.99
2019-04-21T01:15:37.357Z,58.90
2019-04-21T01:16:33.164Z,59.34
2019-04-21T01:17:35.272Z,59.34
2019-04-21T01:18:38.064Z,59.92
2019-04-21T01:19:41.170Z,59.53
2019-04-21T01:20:28.522Z,59.82
2019-04-21T01:21:34.032Z,59.63
2019-04-21T01:22:39.546Z,60.49
2019-04-21T01:23:46.399Z,60.30
2019-04-21T01:25:01.324Z,59.73
2019-04-21T01:26:13.804Z,60.02
2019-04-21T01:27:10.054Z,59.92
2019-04-21T01:28:27.181Z,60.02
2019-04-21T01:29:40.322Z,59.73
2019-04-21T01:30:39.974Z,60.49
2019-04-21T01:31:42.228Z,60.87
2019-04-21T01:32:49.419Z,61.07
2019-04-21T01:33:59.093Z,60.78
2019-04-21T01:35:02.762Z,61.16
2019-04-21T01:36:05.449Z,61.25
2019-04-21T01:37:03.898Z,61.16
2019-04-21T01:38:27.300Z,60.87
2019-04-21T01:39:29.387Z,61.16
2019-04-21T01:40:37.670Z,61.25
2019-04-21T01:41:40.936Z,61.92
2019-04-21T01:42:38.190Z,61.63
2019-04-21T01:43:43.097Z,61.92
2019-04-21T01:44:54.784Z,61.83
2019-04-21T01:45:56.509Z,61.44
2019-04-21T01:46:51.830Z,61.13
2019-04-21T01:48:01.187Z,61.41
2019-04-21T01:49:06.772Z,61.07
2019-04-21T01:50:09.889Z,61.16
2019-04-21T01:51:18.901Z,61.63
2019-04-21T01:52:38.674Z,61.92
2019-04-21T01:53:36.446Z,61.89
2019-04-21T01:54:45.882Z,61.99
2019-04-21T01:55:45.424Z,62.08
2019-04-21T01:56:51.308Z,62.56
2019-04-21T01:57:55.349Z,62.27
2019-04-21T01:58:51.438Z,62.46
2019-04-21T01:59:57.036Z,62.75
2019-04-21T02:01:08.717Z,62.56
2019-04-21T02:02:17.099Z,62.37
2019-04-21T02:03:42.996Z,62.65
2019-04-21T02:04:36.346Z,62.65
2019-04-21T02:05:37.453Z,62.46
2019-04-21T02:06:39.102Z,62.65
2019-04-21T02:07:44.683Z,62.65
2019-04-21T02:08:51.497Z,62.56
2019-04-21T02:09:56.820Z,63.13
2019-04-21T02:11:07.516Z,63.51
2019-04-21T02:12:09.748Z,63.42
2019-04-21T02:13:12.066Z,63.60
2019-04-21T02:14:23.011Z,63.76
2019-04-21T02:15:33.016Z,64.05
2019-04-21T02:16:32.732Z,64.24
2019-04-21T02:17:34.300Z,64.24
2019-04-21T02:18:38.978Z,64.43
2019-04-21T02:19:45.078Z,64.24
2019-04-21T02:20:43.439Z,64.43
2019-04-21T02:21:47.507Z,64.24
2019-04-21T02:23:28.141Z,64.24
2019-04-21T02:24:11.879Z,64.05
2019-04-21T02:25:18.335Z,64.43
2019-04-21T02:26:22.609Z,63.67
2019-04-21T02:27:26.184Z,63.48
2019-04-21T02:28:36.911Z,63.57
2019-04-21T02:29:40.867Z,63.57
2019-04-21T02:30:58.638Z,64.15
2019-04-21T02:32:04.248Z,63.39
2019-04-21T02:33:08.643Z,63.57
2019-04-21T02:35:21.950Z,63.20
2019-04-21T02:37:40.224Z,63.86
2019-04-21T02:40:49.547Z,63.86
2019-04-21T02:41:51.180Z,64.05
2019-04-21T02:42:56.102Z,64.15
2019-04-21T02:44:00.390Z,64.43
2019-04-21T02:45:09.332Z,64.15
2019-04-21T02:46:12.598Z,64.15
2019-04-21T02:47:16.991Z,63.57
2019-04-21T02:48:17.263Z,64.05
2019-04-21T02:50:31.734Z,64.05
2019-04-21T02:52:43.622Z,64.24
2019-04-21T02:56:00.688Z,64.24
2019-04-21T02:57:11.288Z,63.96
2019-04-21T02:59:15.019Z,64.72
2019-04-21T03:00:25.069Z,64.15
2019-04-21T03:01:33.529Z,64.15
2019-04-21T03:03:37.944Z,64.72
2019-04-21T03:04:45.804Z,64.62
2019-04-21T03:07:01.582Z,65.00
2019-04-21T03:08:03.242Z,64.81
2019-04-21T03:09:12.329Z,64.34
2019-04-21T03:10:14.434Z,64.72
2019-04-21T03:12:19.683Z,64.91
2019-04-21T03:13:29.856Z,64.24
2019-04-21T03:15:37.363Z,64.05
2019-04-21T03:16:57.759Z,64.15
2019-04-21T03:17:49.970Z,64.43
2019-04-21T03:18:56.762Z,63.96
2019-04-21T03:20:02.875Z,64.05
2019-04-21T03:21:09.075Z,63.96
2019-04-21T03:22:14.209Z,64.34
2019-04-21T03:23:23.774Z,64.24
2019-04-21T03:24:17.345Z,64.24
2019-04-21T03:28:45.747Z,64.02
2019-04-21T03:29:54.826Z,64.21
2019-04-21T03:32:33.204Z,64.69
2019-04-21T03:37:39.665Z,65.26
2019-04-21T03:40:40.993Z,65.48
2019-04-21T03:42:02.008Z,65.55
2019-04-21T03:42:59.851Z,65.07
2019-04-21T03:44:00.739Z,65.26
2019-04-21T03:46:05.896Z,65.64
2019-04-21T03:47:23.465Z,66.21
2019-04-21T03:48:27.103Z,66.11
2019-04-21T03:49:45.466Z,66.11
2019-04-21T03:51:48.343Z,66.11
2019-04-21T03:52:53.234Z,66.02
2019-04-21T03:53:46.206Z,65.83
2019-04-21T03:55:30.030Z,66.11
2019-04-21T03:59:12.663Z,67.16
2019-04-21T04:00:42.134Z,67.16
2019-04-21T04:01:25.983Z,67.26
2019-04-21T04:02:55.655Z,67.45
2019-04-21T04:03:52.112Z,67.55
2019-04-21T04:04:45.723Z,67.61
2019-04-21T04:07:06.026Z,67.70
2019-04-21T04:08:09.043Z,67.99
2019-04-21T04:09:31.358Z,67.74
2019-04-21T04:10:13.541Z,68.37
2019-04-21T04:12:19.640Z,69.23
2019-04-21T04:13:37.256Z,69.32
2019-04-21T04:14:42.579Z,69.32
2019-04-21T04:15:56.201Z,69.13
2019-04-21T04:17:46.726Z,69.13
2019-04-21T04:20:09.158Z,68.94
2019-04-21T04:21:14.984Z,68.94
2019-04-21T04:22:30.928Z,69.13
2019-04-21T04:23:20.939Z,69.42
2019-04-21T04:28:58.122Z,69.89
2019-04-21T04:29:51.517Z,69.42
2019-04-21T04:31:58.803Z,69.51
2019-04-21T04:33:12.476Z,69.51
2019-04-21T04:34:29.297Z,69.79
2019-04-21T04:35:28.458Z,69.51
2019-04-21T04:38:41.500Z,69.79
2019-04-21T04:39:52.981Z,69.70
2019-04-21T04:40:48.918Z,70.37
2019-04-21T04:42:55.620Z,69.99
2019-04-21T04:44:32.263Z,70.65
2019-04-21T04:45:17.659Z,70.56
2019-04-21T04:46:35.361Z,70.56
2019-04-21T04:51:58.793Z,70.94
2019-04-21T04:52:48.921Z,71.22
2019-04-21T04:53:47.300Z,71.42
2019-04-21T04:56:03.675Z,71.89
2019-04-21T04:57:16.111Z,72.08
2019-04-21T04:58:56.282Z,71.80
2019-04-21T04:59:43.428Z,71.98
2019-04-21T05:00:36.927Z,71.80
2019-04-21T05:01:46.598Z,71.80
2019-04-21T05:04:00.369Z,71.80
2019-04-21T05:04:59.301Z,71.70
2019-04-21T05:06:06.863Z,71.89
2019-04-21T05:06:58.079Z,71.32
2019-04-21T05:08:07.625Z,71.70
2019-04-21T05:10:17.641Z,71.51
2019-04-21T05:11:30.882Z,71.80
2019-04-21T05:12:22.761Z,71.13
2019-04-21T05:13:34.808Z,71.61
2019-04-21T05:14:39.023Z,71.51
2019-04-21T05:15:41.698Z,71.98
2019-04-21T05:17:51.024Z,72.46
2019-04-21T05:20:10.292Z,72.46
2019-04-21T05:21:24.488Z,72.27
2019-04-21T05:22:20.237Z,72.37
2019-04-21T05:23:11.963Z,72.27
2019-04-21T05:24:16.255Z,72.27
2019-04-21T05:25:18.502Z,72.37
2019-04-21T05:26:23.345Z,72.37
2019-04-21T05:27:29.372Z,72.17
2019-04-21T05:28:32.703Z,71.98
2019-04-21T05:29:53.536Z,72.27
2019-04-21T05:30:58.481Z,72.85
2019-04-21T05:31:57.038Z,73.03
2019-04-21T05:33:03.969Z,72.94
2019-04-21T05:34:10.732Z,73.22
2019-04-21T05:35:14.522Z,73.03
2019-04-21T05:36:18.743Z,73.32
2019-04-21T05:37:25.927Z,72.94
2019-04-21T05:38:27.222Z,72.12
2019-04-21T05:39:29.747Z,72.17
2019-04-21T05:40:35.924Z,72.69
2019-04-21T05:41:37.268Z,72.41
2019-04-21T05:42:52.943Z,72.60
2019-04-21T05:44:01.493Z,71.73
2019-04-21T05:45:12.334Z,71.55
2019-04-21T05:46:13.743Z,71.83
2019-04-21T05:47:33.271Z,72.60
2019-04-21T05:48:22.949Z,72.12
2019-04-21T05:49:22.389Z,72.31
2019-04-21T05:50:26.558Z,72.78
2019-04-21T05:51:30.757Z,72.88
2019-04-21T05:52:35.263Z,72.69
2019-04-21T05:53:52.094Z,72.97
2019-04-21T05:54:57.393Z,73.36
2019-04-21T05:56:03.608Z,73.17
2019-04-21T05:57:05.938Z,72.88
2019-04-21T05:58:06.954Z,73.65
2019-04-21T05:59:12.181Z,73.93
2019-04-21T06:00:35.198Z,74.16
2019-04-21T06:01:33.241Z,74.54
2019-04-21T06:02:28.975Z,74.92
2019-04-21T06:03:44.699Z,75.01
2019-04-21T06:06:59.871Z,75.40
2019-04-21T06:08:00.460Z,75.40
2019-04-21T06:09:10.028Z,75.78
2019-04-21T06:10:06.894Z,76.16
2019-04-21T06:11:18.113Z,76.16
2019-04-21T06:12:21.189Z,77.01
2019-04-21T06:13:41.006Z,76.57
2019-04-21T06:14:38.339Z,76.86
2019-04-21T06:15:44.579Z,76.48
2019-04-21T06:16:54.361Z,76.39
2019-04-21T06:17:49.167Z,76.39
2019-04-21T06:20:03.040Z,76.39
2019-04-21T06:21:07.233Z,76.29
2019-04-21T06:22:08.337Z,75.91
2019-04-21T06:23:20.934Z,76.42
2019-04-21T06:24:26.997Z,75.57
2019-04-21T06:26:51.778Z,74.90
2019-04-21T06:27:42.430Z,74.80
2019-04-21T06:28:45.352Z,74.90
2019-04-21T06:29:50.212Z,74.71
2019-04-21T06:31:08.092Z,74.32
2019-04-21T06:32:20.427Z,74.52
2019-04-21T06:33:09.964Z,74.90
2019-04-21T06:34:16.654Z,74.90
2019-04-21T06:35:37.769Z,74.61
2019-04-21T06:36:36.132Z,74.08
2019-04-21T06:38:43.266Z,73.41
2019-04-21T06:39:54.264Z,73.69
2019-04-21T06:40:48.394Z,73.69
2019-04-21T06:41:49.190Z,73.22
2019-04-21T06:43:08.233Z,73.50
2019-04-21T06:44:09.393Z,74.08
2019-04-21T06:45:32.148Z,73.69
2019-04-21T06:46:20.009Z,74.02
2019-04-21T06:47:26.592Z,73.25
2019-04-21T06:48:26.212Z,73.07
2019-04-21T06:49:27.882Z,73.44
2019-04-21T06:50:41.120Z,72.87
2019-04-21T06:51:38.518Z,72.39
2019-04-21T06:53:59.283Z,72.30
2019-04-21T06:55:02.651Z,72.01
2019-04-21T06:56:04.998Z,72.01
2019-04-21T06:57:12.217Z,71.72
2019-04-21T06:58:10.221Z,71.72
2019-04-21T06:59:17.457Z,71.19
2019-04-21T07:00:22.703Z,70.33
2019-04-21T07:01:30.825Z,70.52
2019-04-21T07:02:43.790Z,69.95
2019-04-21T07:03:42.157Z,69.76
2019-04-21T07:05:02.104Z,69.66
2019-04-21T07:05:57.626Z,69.18
2019-04-21T07:07:12.956Z,69.37
2019-04-21T07:08:07.598Z,68.70
2019-04-21T07:09:15.300Z,68.61
2019-04-21T07:10:19.553Z,67.69
2019-04-21T07:11:18.679Z,67.49
2019-04-21T07:12:23.145Z,67.11
2019-04-21T07:13:28.732Z,66.35
2019-04-21T07:14:31.954Z,66.06
2019-04-21T07:15:46.337Z,65.48
2019-04-21T07:16:50.921Z,63.19
2019-04-21T07:17:54.004Z,62.46
2019-04-21T07:19:07.122Z,62.84
2019-04-21T07:20:18.855Z,62.55
2019-04-21T07:21:09.566Z,62.65
2019-04-21T07:22:21.444Z,62.84
2019-04-21T07:23:28.512Z,62.65
2019-04-21T07:24:46.154Z,62.84
2019-04-21T07:25:32.791Z,62.94
2019-04-21T07:26:36.722Z,62.11
2019-04-21T07:28:54.442Z,61.44
2019-04-21T07:29:55.115Z,59.91
2019-04-21T07:31:03.407Z,59.52
2019-04-21T07:32:04.441Z,60.96
2019-04-21T07:33:37.500Z,60.00
2019-04-21T07:34:23.971Z,59.45
2019-04-21T07:35:23.597Z,60.03
2019-04-21T07:36:43.418Z,59.94
2019-04-21T07:37:33.540Z,59.08
2019-04-21T07:38:37.936Z,59.08
2019-04-21T07:39:40.718Z,58.59
2019-04-21T07:40:41.720Z,57.86
2019-04-21T07:41:48.418Z,57.28
2019-04-21T07:42:54.157Z,57.76
2019-04-21T07:44:03.256Z,57.48
2019-04-21T07:45:05.149Z,57.28
2019-04-21T07:46:06.775Z,56.99
2019-04-21T07:47:23.444Z,56.32
2019-04-21T07:48:24.943Z,55.75
2019-04-21T07:49:36.938Z,55.87
2019-04-21T07:50:45.479Z,55.30
2019-04-21T07:51:49.049Z,55.49
2019-04-21T07:52:55.354Z,55.87
2019-04-21T07:54:13.953Z,55.49
2019-04-21T07:55:12.899Z,55.71
2019-04-21T07:55:46.926Z,56.00
2019-04-21T07:57:03.988Z,55.42
2019-04-21T07:58:15.000Z,55.90
2019-04-21T08:00:29.622Z,54.56
2019-04-21T08:01:30.546Z,54.46
2019-04-21T08:02:33.997Z,54.39
2019-04-21T08:04:24.803Z,53.91
2019-04-21T08:05:10.231Z,53.72
2019-04-21T08:05:58.915Z,54.11
2019-04-21T08:06:55.464Z,54.11
2019-04-21T08:07:59.515Z,53.91
2019-04-21T08:09:07.438Z,53.53
2019-04-21T08:10:14.520Z,53.08
2019-04-21T08:11:24.334Z,53.17
2019-04-21T08:12:20.389Z,52.89
2019-04-21T08:13:34.255Z,52.98
2019-04-21T08:14:38.352Z,53.85
2019-04-21T08:15:45.801Z,53.85
2019-04-21T08:16:53.977Z,53.66
2019-04-21T08:17:54.721Z,52.69
2019-04-21T08:18:59.818Z,52.72
2019-04-21T08:20:00.202Z,53.11
2019-04-21T08:21:06.246Z,53.39
2019-04-21T08:22:20.253Z,53.58
2019-04-21T08:23:22.109Z,53.78
2019-04-21T08:25:34.901Z,51.37
2019-04-21T08:27:47.793Z,50.54
2019-04-21T08:28:58.873Z,50.05
2019-04-21T08:29:54.873Z,50.54
2019-04-21T08:31:01.430Z,51.40
2019-04-21T08:32:07.967Z,51.50
2019-04-21T08:33:15.975Z,50.63
2019-04-21T08:34:24.198Z,50.56
2019-04-21T08:36:32.652Z,50.66
2019-04-21T08:37:31.100Z,51.43
2019-04-21T08:38:40.228Z,51.33
2019-04-21T08:41:00.117Z,50.27
2019-04-21T08:41:58.675Z,50.18
2019-04-21T08:43:20.631Z,50.46
2019-04-21T08:44:01.779Z,49.99
2019-04-21T08:45:15.233Z,50.37
2019-04-21T08:46:20.252Z,51.17
2019-04-21T08:47:25.654Z,50.49
2019-04-21T08:48:28.536Z,50.20
2019-04-21T08:49:35.077Z,49.91
2019-04-21T08:50:36.339Z,49.15
2019-04-21T08:51:48.438Z,49.24
2019-04-21T08:55:05.692Z,49.91
2019-04-21T08:56:12.200Z,49.91
2019-04-21T08:57:19.733Z,49.65
2019-04-21T08:58:25.668Z,49.07
2019-04-21T08:59:26.822Z,48.59
2019-04-21T09:00:33.500Z,47.34
2019-04-21T09:01:38.187Z,47.24
2019-04-21T09:02:43.092Z,47.63
2019-04-21T09:03:44.032Z,47.05
2019-04-21T09:06:00.961Z,45.90
2019-04-21T09:08:03.831Z,46.01
2019-04-21T09:09:22.404Z,45.34
2019-04-21T09:10:17.050Z,44.38
2019-04-21T09:11:20.997Z,44.96
2019-04-21T09:12:28.645Z,44.86
2019-04-21T09:13:29.666Z,44.76
2019-04-21T09:14:36.855Z,44.57
2019-04-21T09:15:41.884Z,45.05
2019-04-21T09:16:47.793Z,45.05
2019-04-21T09:17:51.552Z,44.76
2019-04-21T09:18:53.653Z,45.27
2019-04-21T09:20:13.946Z,44.69
2019-04-21T09:21:13.558Z,44.40
2019-04-21T09:22:18.249Z,43.54
2019-04-21T09:23:19.408Z,43.24
2019-04-21T09:24:29.533Z,42.96
2019-04-21T09:25:44.687Z,42.57
2019-04-21T09:26:36.984Z,42.86
2019-04-21T09:27:42.474Z,42.59
2019-04-21T09:28:46.363Z,42.59
2019-04-21T09:29:44.718Z,43.75
2019-04-21T09:30:48.909Z,43.17
2019-04-21T09:31:50.283Z,42.49
2019-04-21T09:32:56.899Z,42.69
2019-04-21T09:34:03.167Z,42.11
2019-04-21T09:35:10.277Z,42.69
2019-04-21T09:36:15.384Z,41.53
2019-04-21T09:37:28.670Z,41.44
2019-04-21T09:38:30.157Z,40.76
2019-04-21T09:39:29.687Z,40.66
2019-04-21T09:40:37.194Z,40.88
2019-04-21T09:41:40.731Z,40.78
2019-04-21T09:42:53.258Z,40.49
2019-04-21T09:43:52.755Z,40.11
2019-04-21T09:45:00.495Z,40.01
2019-04-21T09:46:01.830Z,39.72
2019-04-21T09:47:07.414Z,40.20
2019-04-21T09:48:16.453Z,39.82
2019-04-21T09:49:21.732Z,39.04
2019-04-21T09:50:22.328Z,39.06
2019-04-21T09:51:28.120Z,38.95
2019-04-21T09:52:44.334Z,38.49
2019-04-21T09:53:42.229Z,37.33
2019-04-21T09:54:52.031Z,38.29
2019-04-21T09:55:56.170Z,38.10
2019-04-21T09:57:01.630Z,37.71
2019-04-21T09:58:10.054Z,38.49
2019-04-21T09:59:13.675Z,38.97
2019-04-21T10:00:17.966Z,37.81
2019-04-21T10:01:25.397Z,37.43
2019-04-21T10:02:35.247Z,36.09
2019-04-21T10:03:39.691Z,35.52
2019-04-21T10:04:34.059Z,34.55
2019-04-21T10:05:39.586Z,35.03
2019-04-21T10:06:45.308Z,34.64
2019-04-21T10:07:50.786Z,34.94
2019-04-21T10:09:02.785Z,35.13
2019-04-21T10:10:01.633Z,35.52
2019-04-21T10:11:07.780Z,35.03
2019-04-21T10:12:12.665Z,34.45
2019-04-21T10:13:18.183Z,34.47
2019-04-21T10:14:24.299Z,34.76
2019-04-21T10:15:29.808Z,33.70
2019-04-21T10:16:34.733Z,34.18
2019-04-21T10:17:40.256Z,34.08
2019-04-21T10:18:46.114Z,35.05
2019-04-21T10:19:51.299Z,34.47
2019-04-21T10:20:57.046Z,33.98
2019-04-21T10:22:04.016Z,34.66
2019-04-21T10:23:09.138Z,34.95
2019-04-21T10:24:13.368Z,33.98
2019-04-21T10:25:18.859Z,34.28
2019-04-21T10:26:24.449Z,35.36
2019-04-21T10:27:29.902Z,35.55
2019-04-21T10:28:35.425Z,35.36
2019-04-21T10:29:43.126Z,35.36
2019-04-21T10:30:46.871Z,34.68
2019-04-21T10:31:52.447Z,34.10
2019-04-21T10:32:58.504Z,34.20
2019-04-21T10:34:03.172Z,34.48
2019-04-21T10:35:08.525Z,35.37
2019-04-21T10:36:15.110Z,35.95
2019-04-21T10:37:20.791Z,34.60
2019-04-21T10:38:33.253Z,33.92
2019-04-21T10:39:31.566Z,34.02
2019-04-21T10:40:37.338Z,33.92
2019-04-21T10:41:41.692Z,33.44
2019-04-21T10:42:48.124Z,33.54
2019-04-21T10:43:53.346Z,33.73
2019-04-21T10:44:58.874Z,33.45
2019-04-21T10:46:04.491Z,33.94
2019-04-21T10:47:09.239Z,33.45
2019-04-21T10:48:14.760Z,32.78
2019-04-21T10:49:20.259Z,33.55
2019-04-21T10:50:26.798Z,33.26
2019-04-21T10:51:31.292Z,33.07
2019-04-21T10:52:37.358Z,34.91
2019-04-21T10:53:42.810Z,35.60
2019-04-21T10:55:06.820Z,34.44
2019-04-21T10:56:06.090Z,33.47
2019-04-21T10:56:58.875Z,33.86
2019-04-21T10:58:04.585Z,33.47
2019-04-21T10:59:10.256Z,33.18
2019-04-21T11:00:16.065Z,32.60
2019-04-21T11:01:21.119Z,32.02
2019-04-21T11:02:26.519Z,31.93
2019-04-21T11:03:33.259Z,31.83
2019-04-21T11:04:40.175Z,32.51
2019-04-21T11:05:43.028Z,33.18
2019-04-21T11:06:48.639Z,33.95
2019-04-21T11:08:07.867Z,33.97
2019-04-21T11:09:01.496Z,33.49
2019-04-21T11:10:05.095Z,32.71
2019-04-21T11:11:11.994Z,32.81
2019-04-21T11:12:16.139Z,33.10
2019-04-21T11:13:22.934Z,31.65
2019-04-21T11:14:27.269Z,31.84
2019-04-21T11:15:32.859Z,31.74
2019-04-21T11:16:39.213Z,31.94
2019-04-21T11:17:45.125Z,32.33
2019-04-21T11:18:49.243Z,32.71
2019-04-21T11:19:54.883Z,32.23
2019-04-21T11:21:00.744Z,32.62
2019-04-21T11:22:07.114Z,32.81
2019-04-21T11:23:12.126Z,32.23
2019-04-21T11:24:18.091Z,31.84
2019-04-21T11:25:22.345Z,32.81
2019-04-21T11:26:27.872Z,32.52
2019-04-21T11:27:33.385Z,32.33
2019-04-21T11:28:38.981Z,31.94
2019-04-21T11:29:44.426Z,31.84
2019-04-21T11:30:50.981Z,32.62
2019-04-21T11:31:56.803Z,33.01
2019-04-21T11:33:01.436Z,31.84
2019-04-21T11:34:07.303Z,32.34
2019-04-21T11:35:12.919Z,31.74
2019-04-21T11:36:17.541Z,31.96
2019-04-21T11:37:24.105Z,31.86
2019-04-21T11:38:31.845Z,30.69
2019-04-21T11:39:42.009Z,31.67
2019-04-21T11:40:39.976Z,31.86
2019-04-21T11:41:45.750Z,30.60
2019-04-21T11:42:51.530Z,31.76
2019-04-21T11:43:57.218Z,31.96
2019-04-21T11:45:01.683Z,32.15
2019-04-21T11:46:08.489Z,30.21
2019-04-21T11:47:12.741Z,29.53
2019-04-21T11:48:18.552Z,31.09
2019-04-21T11:49:24.532Z,30.89
2019-04-21T11:50:29.282Z,31.37
2019-04-21T11:51:35.220Z,31.78
2019-04-21T11:52:41.094Z,32.26
2019-04-21T11:53:46.608Z,31.39
2019-04-21T11:54:51.348Z,31.87
2019-04-21T11:55:57.054Z,31.68
2019-04-21T11:57:11.730Z,32.07
2019-04-21T11:58:07.917Z,30.91
2019-04-21T11:59:13.425Z,30.52
2019-04-21T12:00:19.833Z,31.20
2019-04-21T12:01:25.587Z,32.17
2019-04-21T12:02:29.982Z,33.62
2019-04-21T12:03:35.824Z,31.79
2019-04-21T12:04:41.298Z,32.07
2019-04-21T12:05:47.745Z,29.84
2019-04-21T12:06:52.876Z,28.19
2019-04-21T12:07:58.527Z,29.55
2019-04-21T12:09:04.926Z,30.92
2019-04-21T12:10:09.224Z,31.78
2019-04-21T12:11:15.727Z,30.34
2019-04-21T12:12:19.675Z,29.95
2019-04-21T12:13:25.184Z,30.52
2019-04-21T12:14:32.035Z,30.82
2019-04-21T12:15:36.803Z,30.82
2019-04-21T12:16:41.729Z,31.12
2019-04-21T12:17:48.067Z,30.04
2019-04-21T12:18:52.770Z,30.54
2019-04-21T12:19:59.002Z,31.60
2019-04-21T12:21:05.217Z,31.99
2019-04-21T12:22:19.283Z,32.86
2019-04-21T12:23:14.877Z,31.99
2019-04-21T12:24:21.516Z,30.92
2019-04-21T12:25:27.172Z,30.82
2019-04-21T12:26:31.801Z,31.60
2019-04-21T12:27:38.000Z,31.71
2019-04-21T12:28:43.761Z,31.50
2019-04-21T12:29:49.237Z,31.02
2019-04-21T12:30:53.812Z,30.73
2019-04-21T12:31:59.416Z,29.66
2019-04-21T12:33:04.523Z,30.05
2019-04-21T12:34:10.028Z,29.47
2019-04-21T12:35:15.822Z,30.35
2019-04-21T12:36:21.987Z,30.54
2019-04-21T12:37:26.853Z,30.55
2019-04-21T12:38:42.752Z,30.55
2019-04-21T12:39:38.749Z,31.21
2019-04-21T12:40:44.285Z,30.84
2019-04-21T12:41:48.993Z,30.63
2019-04-21T12:42:54.871Z,30.63
2019-04-21T12:44:00.459Z,31.99
2019-04-21T12:45:05.602Z,30.92
2019-04-21T12:46:11.851Z,30.65
2019-04-21T12:47:16.322Z,30.55
2019-04-21T12:48:22.142Z,29.95
2019-04-21T12:49:27.589Z,29.68
2019-04-21T12:50:34.075Z,30.94
2019-04-21T12:51:39.669Z,30.63
2019-04-21T12:52:45.252Z,30.35
2019-04-21T12:53:49.852Z,30.84
2019-04-21T12:54:55.577Z,30.73
2019-04-21T12:56:02.000Z,32.00
2019-04-21T12:57:05.932Z,31.71
2019-04-21T12:58:11.465Z,31.13
2019-04-21T12:59:17.005Z,31.32
2019-04-21T13:00:22.830Z,31.62
2019-04-21T13:01:28.029Z,30.84
2019-04-21T13:02:33.848Z,30.65
2019-04-21T13:03:39.708Z,30.74
2019-04-21T13:04:45.887Z,30.84
2019-04-21T13:05:50.114Z,30.65
2019-04-21T13:06:55.612Z,30.35
2019-04-21T13:08:01.601Z,30.65
2019-04-21T13:09:10.733Z,30.65
2019-04-21T13:10:12.694Z,29.68
2019-04-21T13:11:19.102Z,30.55
2019-04-21T13:12:23.236Z,30.16
2019-04-21T13:13:30.022Z,30.26
2019-04-21T13:14:34.252Z,29.77
2019-04-21T13:15:39.904Z,29.77
2019-04-21T13:16:45.687Z,29.68
2019-04-21T13:17:52.135Z,29.68
2019-04-21T13:18:57.518Z,29.97
2019-04-21T13:20:03.364Z,30.26
2019-04-21T13:21:07.371Z,30.35
2019-04-21T13:22:14.019Z,29.87
2019-04-21T13:23:18.969Z,29.97
2019-04-21T13:24:24.157Z,30.57
2019-04-21T13:25:29.779Z,29.58
2019-04-21T13:26:43.079Z,29.60
2019-04-21T13:27:40.892Z,29.58
2019-04-21T13:28:46.004Z,30.65
2019-04-21T13:29:52.388Z,30.94
2019-04-21T13:30:58.120Z,30.84
2019-04-21T13:32:04.978Z,30.27
2019-04-21T13:33:09.151Z,30.66
2019-04-21T13:34:13.988Z,30.66
2019-04-21T13:35:19.224Z,30.27
2019-04-21T13:36:25.666Z,30.57
2019-04-21T13:37:30.170Z,30.76
2019-04-21T13:38:42.756Z,30.85
2019-04-21T13:40:21.024Z,32.42
2019-04-21T13:41:03.769Z,32.02
2019-04-21T13:42:05.609Z,29.80
2019-04-21T13:43:01.730Z,29.30
2019-04-21T13:44:03.395Z,29.61
2019-04-21T13:45:10.205Z,30.27
2019-04-21T13:46:15.489Z,30.37
2019-04-21T13:47:20.781Z,30.29
2019-04-21T13:48:26.440Z,30.57
2019-04-21T13:49:31.640Z,30.85
2019-04-21T13:50:37.288Z,30.57
2019-04-21T13:51:41.913Z,30.18
2019-04-21T13:52:48.845Z,29.60
2019-04-21T13:53:53.573Z,29.21
2019-04-21T13:54:58.468Z,29.21
2019-04-21T13:56:04.700Z,29.19
2019-04-21T13:57:10.491Z,29.19
2019-04-21T13:58:16.652Z,29.19
2019-04-21T13:59:20.563Z,29.19
2019-04-21T14:00:27.378Z,29.58
2019-04-21T14:01:31.869Z,29.58
2019-04-21T14:02:38.559Z,30.26
2019-04-21T14:03:43.889Z,30.65
2019-04-21T14:04:49.545Z,29.57
2019-04-21T14:05:54.130Z,29.28
2019-04-21T14:07:00.414Z,30.44
2019-04-21T14:08:05.108Z,30.82
2019-04-21T14:09:10.233Z,31.50
2019-04-21T14:10:16.064Z,31.89
2019-04-21T14:11:21.273Z,32.86
2019-04-21T14:12:27.538Z,32.76
2019-04-21T14:13:32.334Z,30.44
2019-04-21T14:14:38.646Z,31.12
2019-04-21T14:15:45.329Z,31.21
2019-04-21T14:16:49.917Z,30.82
2019-04-21T14:17:54.895Z,30.91
2019-04-21T14:19:01.357Z,30.71
2019-04-21T14:20:05.450Z,30.44
2019-04-21T14:21:11.385Z,29.46
2019-04-21T14:22:16.465Z,30.62
2019-04-21T14:23:30.812Z,30.23
2019-04-21T14:24:28.737Z,30.91
2019-04-21T14:25:33.023Z,29.74
2019-04-21T14:26:38.640Z,29.46
2019-04-21T14:27:46.995Z,29.55
2019-04-21T14:28:49.594Z,29.64
2019-04-21T14:29:55.549Z,30.32
2019-04-21T14:31:02.124Z,32.46
2019-04-21T14:32:06.444Z,31.97
2019-04-21T14:33:12.076Z,32.56
2019-04-21T14:34:17.170Z,30.79
2019-04-21T14:35:22.919Z,30.31
2019-04-21T14:36:28.680Z,30.31
2019-04-21T14:37:34.877Z,30.51
2019-04-21T14:38:40.657Z,30.60
2019-04-21T14:39:52.837Z,30.60
2019-04-21T14:40:50.402Z,30.51
2019-04-21T14:41:56.149Z,29.53
2019-04-21T14:43:02.616Z,30.60
2019-04-21T14:44:06.991Z,31.28
2019-04-21T14:45:12.631Z,31.18
2019-04-21T14:46:19.335Z,31.78
2019-04-21T14:47:23.395Z,32.24
2019-04-21T14:48:29.554Z,32.36
2019-04-21T14:49:35.245Z,30.79
2019-04-21T14:50:40.072Z,31.18
2019-04-21T14:51:45.506Z,31.18
2019-04-21T14:52:51.001Z,30.21
2019-04-21T14:53:56.524Z,29.73
2019-04-21T14:55:02.836Z,29.83
2019-04-21T14:56:08.827Z,29.92
2019-04-21T14:57:13.572Z,29.63
2019-04-21T14:58:19.112Z,30.31
2019-04-21T14:59:24.757Z,29.73
2019-04-21T15:00:31.186Z,29.24
2019-04-21T15:01:35.862Z,29.44
2019-04-21T15:02:41.261Z,29.34
2019-04-21T15:03:46.188Z,29.15
2019-04-21T15:04:51.717Z,29.73
2019-04-21T15:05:57.729Z,30.31
2019-04-21T15:07:03.362Z,30.89
2019-04-21T15:08:09.135Z,30.99
2019-04-21T15:09:13.788Z,30.31
2019-04-21T15:10:25.209Z,29.92
2019-04-21T15:11:26.007Z,29.63
2019-04-21T15:12:30.341Z,29.52
2019-04-21T15:13:35.851Z,29.33
2019-04-21T15:14:42.237Z,29.33
2019-04-21T15:15:47.913Z,30.02
2019-04-21T15:16:52.413Z,29.92